Time;durP1;ratioP1;P1;durP2;ratioP2;P2;SDS_P1;SDS_P2;PMS_P1;PMS_P2;Temp;Humidity;BMP_temperature;BMP_pressure;BME280_temperature;BME280_humidity;BME280_pressure;Samples;Min_cycle;Max_cycle;Signal;HPM_P1;HPM_P2
2022/12/04 00:00:26;;;;;;;65.70;28.67;;;;;;;;;;5031533;28;20442;-74
2022/12/04 00:02:54;;;;;;;65.47;29.90;;;;;;;;;;4998500;28;20438;-74
2022/12/04 00:05:20;;;;;;;70.93;30.00;;;;;;;;;;4998165;28;20990;-75
2022/12/04 00:07:47;;;;;;;74.63;30.07;;;;;;;;;;5009926;28;20486;-74
2022/12/04 00:10:14;;;;;;;73.13;30.53;;;;;;;;;;5010881;28;20560;-74
2022/12/04 00:12:41;;;;;;;80.63;30.07;;;;;;;;;;5011791;28;20431;-74
2022/12/04 00:15:24;;;;;;;73.00;29.43;;;;;;;;;;5012376;28;20407;-74
2022/12/04 00:17:52;;;;;;;77.10;29.67;;;;;;;;;;5012826;28;20444;-74
2022/12/04 00:20:19;;;;;;;76.47;30.70;;;;;;;;;;5030815;28;20465;-75
2022/12/04 00:22:46;;;;;;;81.53;31.33;;;;;;;;;;5013288;28;20461;-75
2022/12/04 00:25:13;;;;;;;79.17;30.83;;;;;;;;;;5010948;28;20453;-74
2022/12/04 00:27:39;;;;;;;77.07;31.90;;;;;;;;;;5038463;28;20457;-74
2022/12/04 00:30:06;;;;;;;76.30;31.17;;;;;;;;;;5013180;28;20828;-74
2022/12/04 00:32:33;;;;;;;68.23;30.03;;;;;;;;;;5011260;28;21208;-74
2022/12/04 00:35:01;;;;;;;75.60;31.73;;;;;;;;;;5012780;28;20454;-74
2022/12/04 00:37:27;;;;;;;80.77;30.50;;;;;;;;;;5029724;28;20442;-74
2022/12/04 00:39:54;;;;;;;72.67;29.43;;;;;;;;;;5013721;28;20438;-74
2022/12/04 00:42:38;;;;;;;74.90;30.67;;;;;;;;;;5029907;28;20481;-74
2022/12/04 00:45:05;;;;;;;81.50;33.53;;;;;;;;;;5031326;28;21096;-74
2022/12/04 00:47:31;;;;;;;77.60;31.20;;;;;;;;;;5031584;28;20438;-74
2022/12/04 00:49:58;;;;;;;93.07;33.83;;;;;;;;;;5031060;28;20466;-74
2022/12/04 00:52:27;;;;;;;77.00;32.33;;;;;;;;;;5012615;28;21044;-74
2022/12/04 00:54:53;;;;;;;81.23;32.17;;;;;;;;;;4995781;28;20560;-74
2022/12/04 00:57:22;;;;;;;73.30;29.90;;;;;;;;;;5031225;28;20438;-75
2022/12/04 00:59:49;;;;;;;79.23;32.43;;;;;;;;;;5031001;28;21000;-74
2022/12/04 01:02:15;;;;;;;80.13;30.93;;;;;;;;;;5029008;28;20450;-74
2022/12/04 01:04:42;;;;;;;80.33;31.20;;;;;;;;;;5028927;28;20925;-74
2022/12/04 01:07:09;;;;;;;77.50;31.20;;;;;;;;;;5029128;28;20568;-74
2022/12/04 01:09:35;;;;;;;74.60;30.87;;;;;;;;;;5028886;28;20537;-74
2022/12/04 01:12:02;;;;;;;81.93;30.90;;;;;;;;;;5020519;28;20458;-74
2022/12/04 01:14:28;;;;;;;83.43;30.70;;;;;;;;;;5030888;28;20674;-74
2022/12/04 01:16:56;;;;;;;67.70;29.40;;;;;;;;;;5029722;28;20438;-74
2022/12/04 01:19:23;;;;;;;67.63;29.30;;;;;;;;;;5029594;28;20481;-74
2022/12/04 01:21:50;;;;;;;77.13;29.97;;;;;;;;;;4991514;28;20546;-74
2022/12/04 01:24:16;;;;;;;75.83;29.03;;;;;;;;;;5011496;28;20545;-74
2022/12/04 01:26:43;;;;;;;74.10;30.13;;;;;;;;;;4996222;28;20537;-74
2022/12/04 01:29:10;;;;;;;70.63;29.63;;;;;;;;;;5036468;28;20541;-74
2022/12/04 01:31:37;;;;;;;74.93;28.83;;;;;;;;;;5030000;28;20434;-74
2022/12/04 01:34:04;;;;;;;68.43;29.60;;;;;;;;;;5030611;28;20441;-74
2022/12/04 01:36:31;;;;;;;77.23;29.50;;;;;;;;;;5012846;28;20818;-74
2022/12/04 01:39:14;;;;;;;69.10;29.47;;;;;;;;;;5030505;28;20548;-74
2022/12/04 01:41:41;;;;;;;70.47;28.03;;;;;;;;;;5030047;28;20506;-74
2022/12/04 01:44:18;;;;;;;69.77;28.33;;;;;;;;;;5027207;28;20814;-74
2022/12/04 01:46:45;;;;;;;71.30;27.83;;;;;;;;;;5006055;28;20469;-74
2022/12/04 01:49:14;;;;;;;68.30;29.13;;;;;;;;;;4995301;28;20584;-74
2022/12/04 01:51:41;;;;;;;69.27;28.23;;;;;;;;;;5011058;28;20447;-74
2022/12/04 01:54:10;;;;;;;72.67;28.57;;;;;;;;;;5011275;28;20457;-74
2022/12/04 01:56:57;;;;;;;64.90;28.00;;;;;;;;;;5014137;28;20504;-74
2022/12/04 01:59:25;;;;;;;70.17;27.17;;;;;;;;;;5010983;28;21086;-74
2022/12/04 02:02:13;;;;;;;66.73;27.63;;;;;;;;;;5027119;28;20937;-74
2022/12/04 02:04:40;;;;;;;61.67;26.70;;;;;;;;;;5029324;28;20464;-74
2022/12/04 02:07:08;;;;;;;63.57;27.07;;;;;;;;;;5010901;28;20597;-74
2022/12/04 02:09:34;;;;;;;65.33;28.20;;;;;;;;;;5010818;28;20912;-74
2022/12/04 02:12:11;;;;;;;68.60;28.70;;;;;;;;;;5012066;28;20876;-74
2022/12/04 02:14:41;;;;;;;68.90;27.50;;;;;;;;;;4991429;28;20550;-74
2022/12/04 02:17:19;;;;;;;67.63;28.57;;;;;;;;;;5025447;28;20866;-74
2022/12/04 02:19:52;;;;;;;69.27;27.17;;;;;;;;;;5011100;28;20450;-74
2022/12/04 02:22:39;;;;;;;64.37;27.03;;;;;;;;;;4996032;28;20448;-74
2022/12/04 02:25:39;;;;;;;69.43;26.60;;;;;;;;;;4997008;28;20542;-74
2022/12/04 02:28:12;;;;;;;60.93;26.10;;;;;;;;;;5022572;28;20457;-74
2022/12/04 02:30:40;;;;;;;65.60;26.13;;;;;;;;;;5029942;28;20541;-74
2022/12/04 02:33:12;;;;;;;66.70;25.67;;;;;;;;;;5010522;28;20454;-74
2022/12/04 02:35:40;;;;;;;59.93;26.67;;;;;;;;;;5027356;28;20458;-74
2022/12/04 02:38:13;;;;;;;62.77;26.80;;;;;;;;;;5010912;28;20445;-74
2022/12/04 02:40:58;;;;;;;58.33;25.30;;;;;;;;;;5026566;28;20564;-74
2022/12/04 02:43:29;;;;;;;59.23;24.57;;;;;;;;;;5028080;28;21358;-74
2022/12/04 02:46:20;;;;;;;61.37;26.33;;;;;;;;;;5011949;28;20466;-74
2022/12/04 02:48:48;;;;;;;60.70;26.10;;;;;;;;;;4991080;28;20451;-74
2022/12/04 02:51:15;;;;;;;58.17;26.50;;;;;;;;;;5018682;28;20561;-74
2022/12/04 02:53:46;;;;;;;60.93;25.33;;;;;;;;;;5010359;28;20504;-74
2022/12/04 02:56:14;;;;;;;61.23;27.57;;;;;;;;;;5009890;28;20480;-74
2022/12/04 02:58:41;;;;;;;62.90;26.43;;;;;;;;;;4993009;28;20546;-74
2022/12/04 03:01:18;;;;;;;59.43;25.93;;;;;;;;;;5010112;28;20458;-74
2022/12/04 03:03:49;;;;;;;63.27;26.50;;;;;;;;;;5027639;28;20460;-74
2022/12/04 03:06:16;;;;;;;58.20;26.40;;;;;;;;;;4992875;28;21063;-74
2022/12/04 03:08:44;;;;;;;61.83;26.60;;;;;;;;;;5027155;28;20450;-74
2022/12/04 03:11:11;;;;;;;61.73;27.53;;;;;;;;;;5009727;28;20512;-74
2022/12/04 03:13:38;;;;;;;61.47;25.73;;;;;;;;;;5009347;28;20549;-74
2022/12/04 03:16:06;;;;;;;63.33;27.67;;;;;;;;;;5010363;28;20454;-74
2022/12/04 03:18:38;;;;;;;69.17;28.60;;;;;;;;;;5009862;28;20478;-75
2022/12/04 03:21:09;;;;;;;62.10;26.73;;;;;;;;;;5027977;28;20453;-74
2022/12/04 03:23:43;;;;;;;65.90;26.87;;;;;;;;;;5010940;28;20469;-74
2022/12/04 03:26:19;;;;;;;60.27;26.70;;;;;;;;;;5000772;28;20478;-74
2022/12/04 03:29:08;;;;;;;64.03;25.70;;;;;;;;;;5014690;28;20438;-74
2022/12/04 03:31:39;;;;;;;68.07;27.37;;;;;;;;;;4994469;28;20460;-74
2022/12/04 03:34:06;;;;;;;66.57;26.87;;;;;;;;;;5009668;28;20449;-74
2022/12/04 03:36:36;;;;;;;75.07;28.23;;;;;;;;;;5009647;28;20961;-74
2022/12/04 03:39:23;;;;;;;66.07;27.63;;;;;;;;;;5000743;28;20580;-74
2022/12/04 03:41:59;;;;;;;70.57;25.83;;;;;;;;;;5004114;28;20493;-74
2022/12/04 03:44:55;;;;;;;66.53;27.03;;;;;;;;;;5027382;28;20853;-74
2022/12/04 03:47:27;;;;;;;67.87;25.80;;;;;;;;;;5014666;28;21144;-74
2022/12/04 03:49:59;;;;;;;65.47;26.20;;;;;;;;;;5027314;28;20810;-74
2022/12/04 03:52:49;;;;;;;68.83;27.17;;;;;;;;;;4997035;28;20426;-74
2022/12/04 03:55:18;;;;;;;62.90;26.47;;;;;;;;;;5027019;28;20464;-74
2022/12/04 03:57:45;;;;;;;67.87;26.87;;;;;;;;;;5006725;28;20446;-74
2022/12/04 04:00:12;;;;;;;67.73;26.97;;;;;;;;;;5004434;28;20512;-74
2022/12/04 04:02:40;;;;;;;77.67;27.57;;;;;;;;;;5008538;28;21259;-74
2022/12/04 04:05:24;;;;;;;67.50;27.80;;;;;;;;;;5012083;28;20438;-74
2022/12/04 04:08:24;;;;;;;68.23;26.57;;;;;;;;;;5009844;28;20576;-74
2022/12/04 04:10:46;;;;;;;71.67;27.50;;;;;;;;;;5027729;28;20545;-74
2022/12/04 04:24:28;;;;;;;64.10;26.57;;;;;;;;;;5012355;28;20973;-74
2022/12/04 04:27:12;;;;;;;67.27;26.10;;;;;;;;;;5035381;28;20979;-74
2022/12/04 04:29:39;;;;;;;74.13;28.90;;;;;;;;;;5021797;28;20456;-74
2022/12/04 04:32:13;;;;;;;70.83;28.10;;;;;;;;;;5031739;28;20442;-74
2022/12/04 04:34:44;;;;;;;70.23;28.10;;;;;;;;;;5014179;28;20528;-74
2022/12/04 04:37:39;;;;;;;64.50;25.97;;;;;;;;;;5016776;28;20414;-74
2022/12/04 04:40:13;;;;;;;69.37;27.83;;;;;;;;;;4998868;28;21016;-74
2022/12/04 04:42:43;;;;;;;58.20;26.77;;;;;;;;;;5030706;28;20473;-74
2022/12/04 04:45:12;;;;;;;69.07;27.67;;;;;;;;;;5030767;28;20430;-74
2022/12/04 04:47:53;;;;;;;60.30;27.13;;;;;;;;;;5030778;28;21257;-74
2022/12/04 04:50:19;;;;;;;67.13;26.47;;;;;;;;;;5011493;28;20464;-74
2022/12/04 04:52:48;;;;;;;66.67;27.03;;;;;;;;;;5013312;28;20525;-74
2022/12/04 04:55:14;;;;;;;66.77;27.23;;;;;;;;;;5012303;28;20442;-74
2022/12/04 04:57:41;;;;;;;62.13;25.97;;;;;;;;;;5013926;28;20422;-74
2022/12/04 05:00:14;;;;;;;66.40;26.73;;;;;;;;;;4996364;28;20454;-73
2022/12/04 05:02:41;;;;;;;69.83;28.70;;;;;;;;;;5030014;28;20489;-74
2022/12/04 05:05:07;;;;;;;62.20;27.27;;;;;;;;;;5012497;28;20549;-74
2022/12/04 05:07:35;;;;;;;62.40;26.63;;;;;;;;;;5012618;28;20473;-74
2022/12/04 05:10:01;;;;;;;65.83;27.33;;;;;;;;;;5011829;28;20479;-74
2022/12/04 05:12:28;;;;;;;69.83;27.30;;;;;;;;;;5013368;28;20481;-74
2022/12/04 05:14:54;;;;;;;59.60;26.77;;;;;;;;;;5029505;28;20537;-74
2022/12/04 05:17:21;;;;;;;60.03;26.20;;;;;;;;;;5031147;28;20848;-74
2022/12/04 05:19:55;;;;;;;69.37;28.53;;;;;;;;;;5012235;28;20592;-74
2022/12/04 05:22:24;;;;;;;68.20;27.80;;;;;;;;;;5028167;28;20995;-74
2022/12/04 05:24:50;;;;;;;64.03;27.37;;;;;;;;;;5012133;28;20528;-74
2022/12/04 05:27:17;;;;;;;71.40;29.63;;;;;;;;;;5034868;28;20508;-74
2022/12/04 05:30:01;;;;;;;71.90;30.43;;;;;;;;;;5028955;28;20489;-74
2022/12/04 05:32:28;;;;;;;77.20;31.27;;;;;;;;;;5029670;28;20470;-74
2022/12/04 05:35:12;;;;;;;77.87;32.27;;;;;;;;;;4987047;28;20443;-74
2022/12/04 05:37:38;;;;;;;78.53;32.97;;;;;;;;;;5009072;28;20459;-74
2022/12/04 05:40:23;;;;;;;69.10;30.30;;;;;;;;;;4999978;28;20446;-74
2022/12/04 05:42:49;;;;;;;71.63;30.87;;;;;;;;;;5029218;28;20498;-74
2022/12/04 05:45:16;;;;;;;73.40;30.80;;;;;;;;;;4996613;28;20454;-74
2022/12/04 05:47:43;;;;;;;66.43;29.83;;;;;;;;;;5030268;28;20916;-74
2022/12/04 05:50:10;;;;;;;65.10;27.57;;;;;;;;;;5011296;28;21036;-74
2022/12/04 05:52:37;;;;;;;66.60;29.53;;;;;;;;;;5011502;28;20993;-74
2022/12/04 05:55:03;;;;;;;65.40;28.37;;;;;;;;;;5010202;28;20451;-74
2022/12/04 05:57:30;;;;;;;63.43;27.30;;;;;;;;;;5009819;28;20449;-74
2022/12/04 05:59:57;;;;;;;60.27;26.03;;;;;;;;;;5034313;28;20480;-74
2022/12/04 06:02:25;;;;;;;63.07;26.80;;;;;;;;;;5032299;28;20478;-74
2022/12/04 06:04:52;;;;;;;59.93;26.50;;;;;;;;;;5030948;28;20885;-74
2022/12/04 06:07:19;;;;;;;62.80;25.67;;;;;;;;;;5039934;28;21015;-74
2022/12/04 06:09:45;;;;;;;66.90;27.17;;;;;;;;;;5034346;28;20887;-74
2022/12/04 06:12:12;;;;;;;65.37;27.30;;;;;;;;;;5012673;28;20470;-74
2022/12/04 06:14:38;;;;;;;59.27;26.70;;;;;;;;;;5028873;28;20454;-74
2022/12/04 06:17:05;;;;;;;66.80;27.53;;;;;;;;;;5027107;28;21369;-74
2022/12/04 06:19:32;;;;;;;69.33;27.90;;;;;;;;;;5003181;28;20466;-74
2022/12/04 06:21:58;;;;;;;64.27;26.40;;;;;;;;;;5029957;28;20476;-74
2022/12/04 06:24:25;;;;;;;64.13;26.33;;;;;;;;;;5027312;28;21420;-74
2022/12/04 06:26:58;;;;;;;63.87;26.90;;;;;;;;;;5030531;28;20486;-74
2022/12/04 06:29:44;;;;;;;56.80;25.63;;;;;;;;;;5024577;28;20454;-74
2022/12/04 06:32:11;;;;;;;58.00;26.57;;;;;;;;;;5028769;28;20953;-74
2022/12/04 06:34:48;;;;;;;63.67;26.43;;;;;;;;;;5014425;28;20480;-74
2022/12/04 06:37:15;;;;;;;59.03;24.93;;;;;;;;;;5011488;28;20485;-74
2022/12/04 06:39:42;;;;;;;58.00;25.80;;;;;;;;;;5000189;28;20459;-74
2022/12/04 06:42:09;;;;;;;60.87;25.33;;;;;;;;;;5022767;28;20568;-74
2022/12/04 06:44:35;;;;;;;57.93;25.37;;;;;;;;;;5028175;28;20473;-75
2022/12/04 06:47:02;;;;;;;59.37;25.10;;;;;;;;;;5029565;28;20454;-75
2022/12/04 06:49:28;;;;;;;60.93;25.63;;;;;;;;;;5010575;28;20524;-75
2022/12/04 06:51:55;;;;;;;59.10;24.93;;;;;;;;;;5022059;28;20534;-74
2022/12/04 06:54:22;;;;;;;56.97;24.17;;;;;;;;;;5027183;28;20576;-75
2022/12/04 06:56:49;;;;;;;56.17;25.03;;;;;;;;;;5028773;28;20876;-74
2022/12/04 06:59:15;;;;;;;57.40;25.07;;;;;;;;;;5028928;28;20866;-74
2022/12/04 07:01:59;;;;;;;59.97;25.63;;;;;;;;;;5029299;28;20429;-74
2022/12/04 07:04:26;;;;;;;62.73;26.40;;;;;;;;;;5027847;28;20443;-75
2022/12/04 07:06:53;;;;;;;57.53;25.23;;;;;;;;;;5027497;28;20467;-75
2022/12/04 07:09:20;;;;;;;64.87;26.23;;;;;;;;;;5021451;28;20497;-75
2022/12/04 07:11:46;;;;;;;68.63;27.37;;;;;;;;;;5029108;28;20434;-75
2022/12/04 07:14:31;;;;;;;64.23;27.73;;;;;;;;;;5027112;28;20805;-75
2022/12/04 07:16:57;;;;;;;61.67;26.13;;;;;;;;;;5009797;28;20536;-75
2022/12/04 07:19:41;;;;;;;62.10;26.33;;;;;;;;;;5017792;28;20442;-75
2022/12/04 07:22:08;;;;;;;66.20;26.43;;;;;;;;;;5028764;28;20526;-74
2022/12/04 07:24:35;;;;;;;66.90;26.43;;;;;;;;;;5027446;28;20454;-75
2022/12/04 07:27:01;;;;;;;71.63;27.40;;;;;;;;;;5028684;28;20782;-75
2022/12/04 07:29:28;;;;;;;75.73;28.20;;;;;;;;;;5013137;28;20806;-75
2022/12/04 07:31:55;;;;;;;64.93;25.83;;;;;;;;;;5009932;28;20489;-74
2022/12/04 07:34:21;;;;;;;72.17;27.40;;;;;;;;;;5026782;28;20442;-74
2022/12/04 07:36:48;;;;;;;69.73;28.87;;;;;;;;;;5027107;28;20976;-74
2022/12/04 07:39:15;;;;;;;73.77;28.20;;;;;;;;;;5027066;28;20592;-75
2022/12/04 07:41:42;;;;;;;68.67;26.70;;;;;;;;;;5008990;28;20602;-74
2022/12/04 07:44:08;;;;;;;72.00;25.60;;;;;;;;;;5025400;28;20449;-75
2022/12/04 07:46:53;;;;;;;70.77;26.60;;;;;;;;;;5024164;28;20449;-74
2022/12/04 07:49:19;;;;;;;74.17;27.87;;;;;;;;;;5011604;28;20445;-75
2022/12/04 07:51:46;;;;;;;70.17;26.67;;;;;;;;;;5011469;28;20452;-75
2022/12/04 07:54:13;;;;;;;72.07;27.87;;;;;;;;;;5028997;28;20880;-75
2022/12/04 07:56:39;;;;;;;67.70;27.07;;;;;;;;;;5027740;28;20488;-74
2022/12/04 07:59:06;;;;;;;74.43;27.33;;;;;;;;;;5028350;28;20438;-74
2022/12/04 08:01:33;;;;;;;68.77;26.37;;;;;;;;;;5022226;28;20507;-75
2022/12/04 08:03:59;;;;;;;68.73;25.80;;;;;;;;;;5014717;28;20543;-75
2022/12/04 08:06:44;;;;;;;74.23;27.07;;;;;;;;;;5014512;28;20872;-73
2022/12/04 08:09:11;;;;;;;68.67;27.80;;;;;;;;;;5015050;28;20487;-73
2022/12/04 08:11:38;;;;;;;71.73;27.90;;;;;;;;;;5033341;28;20476;-73
2022/12/04 08:14:05;;;;;;;70.87;27.17;;;;;;;;;;5014229;28;20482;-73
2022/12/04 08:16:31;;;;;;;72.77;26.47;;;;;;;;;;4998725;28;20460;-73
2022/12/04 08:18:58;;;;;;;74.87;26.80;;;;;;;;;;5033211;28;20448;-73
2022/12/04 08:21:26;;;;;;;68.13;26.10;;;;;;;;;;5015097;28;20960;-72
2022/12/04 08:23:53;;;;;;;69.80;25.90;;;;;;;;;;5007166;28;20888;-73
2022/12/04 08:26:37;;;;;;;73.10;27.10;;;;;;;;;;5024460;28;20492;-72
2022/12/04 08:29:04;;;;;;;78.97;28.87;;;;;;;;;;5013636;28;20508;-72
2022/12/04 08:31:48;;;;;;;77.70;27.20;;;;;;;;;;5016063;28;20444;-73
2022/12/04 08:34:15;;;;;;;75.23;28.37;;;;;;;;;;5014801;28;20968;-72
2022/12/04 08:36:59;;;;;;;79.13;26.63;;;;;;;;;;5029010;28;20453;-73
2022/12/04 08:39:27;;;;;;;71.23;26.23;;;;;;;;;;5029978;28;20989;-73
2022/12/04 08:41:54;;;;;;;87.20;29.43;;;;;;;;;;5032935;28;20477;-73
2022/12/04 08:44:22;;;;;;;78.33;27.20;;;;;;;;;;5028868;28;20525;-73
2022/12/04 08:46:49;;;;;;;84.87;30.10;;;;;;;;;;5016734;28;21028;-73
2022/12/04 08:49:16;;;;;;;83.53;29.30;;;;;;;;;;5030234;28;20584;-73
2022/12/04 08:51:44;;;;;;;73.87;27.97;;;;;;;;;;5009643;28;20543;-73
2022/12/04 08:54:12;;;;;;;77.10;27.23;;;;;;;;;;5033716;28;20430;-72
2022/12/04 08:56:57;;;;;;;80.60;27.93;;;;;;;;;;5028467;28;20426;-73
2022/12/04 08:59:24;;;;;;;72.23;27.60;;;;;;;;;;4983052;28;21021;-73
2022/12/04 09:02:09;;;;;;;74.77;27.43;;;;;;;;;;5023393;28;20476;-73
2022/12/04 09:04:36;;;;;;;77.17;28.67;;;;;;;;;;5012647;28;20447;-73
2022/12/04 09:07:03;;;;;;;78.70;27.40;;;;;;;;;;5020930;28;20457;-73
2022/12/04 09:09:29;;;;;;;78.93;27.30;;;;;;;;;;5022137;28;20565;-73
2022/12/04 09:11:56;;;;;;;67.97;27.40;;;;;;;;;;5007772;28;20449;-73
2022/12/04 09:14:24;;;;;;;70.00;26.80;;;;;;;;;;5000004;28;20467;-73
2022/12/04 09:16:51;;;;;;;62.73;25.63;;;;;;;;;;5018889;28;20969;-73
2022/12/04 09:19:18;;;;;;;64.43;25.93;;;;;;;;;;5017642;28;20949;-73
2022/12/04 09:21:45;;;;;;;70.53;26.63;;;;;;;;;;5015293;28;20452;-73
2022/12/04 09:24:13;;;;;;;65.27;26.13;;;;;;;;;;5018204;28;20534;-73
2022/12/04 09:26:40;;;;;;;71.13;26.43;;;;;;;;;;4994768;28;20501;-73
2022/12/04 09:29:09;;;;;;;69.87;26.93;;;;;;;;;;5028024;28;20516;-73
2022/12/04 09:31:36;;;;;;;75.80;29.47;;;;;;;;;;4998822;28;20537;-72
2022/12/04 09:34:03;;;;;;;67.60;26.33;;;;;;;;;;4998565;28;20451;-72
2022/12/04 09:36:30;;;;;;;70.00;27.37;;;;;;;;;;5009486;28;20436;-73
2022/12/04 09:38:56;;;;;;;81.17;26.67;;;;;;;;;;4992322;28;20470;-73
2022/12/04 09:41:39;;;;;;;69.23;27.63;;;;;;;;;;4992441;28;20787;-73
2022/12/04 09:44:09;;;;;;;76.27;27.90;;;;;;;;;;5008186;28;20430;-73
2022/12/04 09:46:37;;;;;;;84.50;29.27;;;;;;;;;;5014562;28;20438;-72
2022/12/04 09:49:06;;;;;;;79.63;29.23;;;;;;;;;;4998329;28;21003;-72
2022/12/04 09:51:33;;;;;;;77.67;28.23;;;;;;;;;;4999212;28;20434;-73
2022/12/04 09:54:09;;;;;;;76.27;29.43;;;;;;;;;;5012498;28;20454;-73
2022/12/04 09:56:36;;;;;;;77.70;30.10;;;;;;;;;;5015034;28;20450;-73
2022/12/04 09:59:09;;;;;;;74.87;29.30;;;;;;;;;;5031835;28;20431;-71
2022/12/04 10:01:44;;;;;;;70.07;26.37;;;;;;;;;;5031880;28;20438;-72
2022/12/04 10:04:10;;;;;;;74.93;27.77;;;;;;;;;;5015053;28;20437;-71
2022/12/04 10:06:44;;;;;;;70.50;26.67;;;;;;;;;;5032693;28;20498;-71
2022/12/04 10:09:19;;;;;;;70.47;26.30;;;;;;;;;;5031241;28;20561;-72
2022/12/04 10:12:06;;;;;;;69.17;25.93;;;;;;;;;;5013845;28;20453;-71
2022/12/04 10:14:51;;;;;;;68.03;25.97;;;;;;;;;;5010828;28;20439;-71
2022/12/04 10:17:36;;;;;;;70.10;25.00;;;;;;;;;;5013120;28;20858;-71
2022/12/04 10:20:11;;;;;;;69.03;25.70;;;;;;;;;;5030600;28;20932;-71
2022/12/04 10:22:55;;;;;;;69.43;26.10;;;;;;;;;;5030608;28;20538;-71
2022/12/04 10:25:39;;;;;;;70.60;25.27;;;;;;;;;;5016450;28;20426;-71
2022/12/04 10:28:18;;;;;;;70.20;24.97;;;;;;;;;;5016990;28;20551;-70
2022/12/04 10:31:02;;;;;;;77.10;25.77;;;;;;;;;;5016842;28;20426;-70
2022/12/04 10:33:32;;;;;;;68.90;26.03;;;;;;;;;;5005393;28;20442;-71
2022/12/04 10:35:59;;;;;;;63.90;25.07;;;;;;;;;;4993244;28;20828;-71
2022/12/04 10:38:44;;;;;;;66.30;26.00;;;;;;;;;;5012345;28;20499;-71
2022/12/04 10:41:25;;;;;;;61.93;24.83;;;;;;;;;;5008419;28;21158;-72
2022/12/04 10:43:52;;;;;;;69.70;27.20;;;;;;;;;;5011669;28;20474;-72
2022/12/04 10:46:26;;;;;;;71.03;26.77;;;;;;;;;;5028567;28;20916;-72
2022/12/04 10:49:03;;;;;;;79.13;28.27;;;;;;;;;;5578470;22;21333;-73
2022/12/04 10:51:32;;;;;;;70.57;24.70;;;;;;;;;;4995133;28;20431;-72
2022/12/04 10:53:59;;;;;;;68.60;24.40;;;;;;;;;;4993916;28;20505;-72
2022/12/04 10:56:25;;;;;;;67.60;25.13;;;;;;;;;;4989158;28;20504;-72
2022/12/04 10:58:59;;;;;;;65.57;23.57;;;;;;;;;;4997774;28;20438;-72
2022/12/04 11:01:26;;;;;;;62.93;22.97;;;;;;;;;;4993845;28;20428;-72
2022/12/04 11:04:04;;;;;;;65.00;24.23;;;;;;;;;;5017238;28;20833;-72
2022/12/04 11:06:31;;;;;;;59.87;22.63;;;;;;;;;;4995993;28;20450;-72
2022/12/04 11:08:58;;;;;;;61.63;24.43;;;;;;;;;;5015015;28;20473;-72
2022/12/04 11:11:26;;;;;;;69.57;24.53;;;;;;;;;;4977597;28;20435;-72
2022/12/04 11:14:00;;;;;;;56.57;22.67;;;;;;;;;;5010268;28;20492;-72
2022/12/04 11:16:37;;;;;;;53.63;21.07;;;;;;;;;;5018744;28;20428;-72
2022/12/04 11:19:21;;;;;;;53.77;21.30;;;;;;;;;;5009745;28;20462;-72
2022/12/04 11:21:48;;;;;;;55.30;21.83;;;;;;;;;;5017408;28;20438;-72
2022/12/04 11:24:18;;;;;;;62.73;22.77;;;;;;;;;;5019726;28;20847;-73
2022/12/04 11:26:45;;;;;;;62.17;22.30;;;;;;;;;;4988031;28;20427;-72
2022/12/04 11:29:12;;;;;;;55.40;22.23;;;;;;;;;;4993044;28;20506;-72
2022/12/04 11:31:41;;;;;;;56.30;23.53;;;;;;;;;;4998989;28;20423;-72
2022/12/04 11:34:08;;;;;;;57.03;22.77;;;;;;;;;;4990484;28;20981;-73
2022/12/04 11:36:39;;;;;;;50.53;21.60;;;;;;;;;;4990668;28;20456;-73
2022/12/04 11:39:12;;;;;;;54.00;21.93;;;;;;;;;;4994155;28;20800;-73
2022/12/04 11:41:38;;;;;;;55.70;21.13;;;;;;;;;;5007562;28;20485;-73
2022/12/04 11:44:05;;;;;;;57.97;21.87;;;;;;;;;;5002270;28;20442;-73
2022/12/04 11:46:32;;;;;;;55.43;22.03;;;;;;;;;;4994056;28;20458;-73
2022/12/04 11:49:02;;;;;;;61.47;22.13;;;;;;;;;;5026446;28;20982;-73
2022/12/04 11:51:38;;;;;;;55.63;22.10;;;;;;;;;;4992421;28;20451;-73
2022/12/04 11:54:23;;;;;;;60.37;21.80;;;;;;;;;;5019008;28;21002;-73
2022/12/04 11:57:03;;;;;;;59.27;22.63;;;;;;;;;;5015026;28;20431;-73
2022/12/04 11:59:39;;;;;;;62.30;22.57;;;;;;;;;;4965824;28;20476;-72
2022/12/04 12:02:25;;;;;;;63.77;21.80;;;;;;;;;;4986455;28;20974;-73
2022/12/04 12:05:11;;;;;;;64.87;22.80;;;;;;;;;;5017675;28;20433;-73
2022/12/04 12:07:37;;;;;;;66.80;23.90;;;;;;;;;;5001245;28;20464;-73
2022/12/04 12:10:30;;;;;;;65.00;22.93;;;;;;;;;;5021284;28;20477;-73
2022/12/04 12:13:00;;;;;;;56.07;22.83;;;;;;;;;;5022697;28;20438;-73
2022/12/04 12:15:40;;;;;;;66.57;22.83;;;;;;;;;;4998761;28;21000;-72
2022/12/04 12:18:20;;;;;;;63.80;22.80;;;;;;;;;;5020844;28;20538;-72
2022/12/04 12:20:54;;;;;;;72.27;23.70;;;;;;;;;;5019999;28;20440;-72
2022/12/04 12:23:20;;;;;;;67.13;22.93;;;;;;;;;;5013390;28;20457;-73
2022/12/04 12:25:48;;;;;;;54.27;21.43;;;;;;;;;;5023416;28;20953;-72
2022/12/04 12:28:36;;;;;;;51.50;20.53;;;;;;;;;;5010012;28;20463;-72
2022/12/04 12:31:16;;;;;;;66.60;22.33;;;;;;;;;;5026196;28;20434;-73
2022/12/04 12:33:52;;;;;;;65.33;22.87;;;;;;;;;;4987101;28;20435;-73
2022/12/04 12:36:20;;;;;;;58.40;22.03;;;;;;;;;;5004459;28;20569;-72
2022/12/04 12:38:54;;;;;;;74.97;24.73;;;;;;;;;;5024571;28;20436;-72
2022/12/04 12:41:35;;;;;;;62.33;23.43;;;;;;;;;;4992140;28;20443;-73
2022/12/04 12:44:03;;;;;;;68.40;24.33;;;;;;;;;;5011303;28;20438;-72
2022/12/04 12:46:34;;;;;;;62.23;22.60;;;;;;;;;;5006376;28;21020;-73
2022/12/04 12:49:08;;;;;;;68.57;23.57;;;;;;;;;;4982709;28;20491;-73
2022/12/04 12:51:44;;;;;;;61.50;23.37;;;;;;;;;;5012037;28;20423;-73
2022/12/04 12:54:20;;;;;;;59.70;21.80;;;;;;;;;;5012575;28;20446;-72
2022/12/04 12:56:52;;;;;;;61.70;23.10;;;;;;;;;;4996205;28;20491;-72
2022/12/04 12:59:20;;;;;;;58.00;21.37;;;;;;;;;;5025418;28;21042;-72
2022/12/04 13:02:01;;;;;;;60.77;23.03;;;;;;;;;;5012069;28;20952;-72
2022/12/04 13:04:31;;;;;;;59.23;21.50;;;;;;;;;;5025041;28;20422;-72
2022/12/04 13:07:20;;;;;;;60.73;22.47;;;;;;;;;;5008502;28;20433;-72
2022/12/04 13:09:49;;;;;;;59.63;22.13;;;;;;;;;;4985596;28;20829;-72
2022/12/04 13:12:16;;;;;;;63.77;23.17;;;;;;;;;;5008184;28;20436;-72
2022/12/04 13:14:42;;;;;;;63.70;22.50;;;;;;;;;;5005980;28;20443;-72
2022/12/04 13:17:34;;;;;;;53.70;20.87;;;;;;;;;;5011707;28;20855;-72
2022/12/04 13:20:02;;;;;;;56.30;20.60;;;;;;;;;;4999298;28;20448;-72
2022/12/04 13:23:05;;;;;;;52.53;20.50;;;;;;;;;;4986764;28;20454;-72
2022/12/04 13:25:38;;;;;;;56.43;20.20;;;;;;;;;;4960341;28;20501;-72
2022/12/04 13:28:23;;;;;;;58.57;22.07;;;;;;;;;;5029355;28;20491;-72
2022/12/04 13:30:56;;;;;;;57.80;21.27;;;;;;;;;;5032541;28;20959;-73
2022/12/04 13:33:36;;;;;;;57.87;20.53;;;;;;;;;;5010823;28;20506;-72
2022/12/04 13:36:14;;;;;;;54.00;20.87;;;;;;;;;;4998046;28;20525;-72
2022/12/04 13:38:41;;;;;;;56.10;21.77;;;;;;;;;;4996254;28;20439;-71
2022/12/04 13:41:08;;;;;;;55.03;22.20;;;;;;;;;;5005417;28;20448;-72
2022/12/04 13:43:36;;;;;;;54.87;20.93;;;;;;;;;;4995421;28;20440;-72
2022/12/04 13:46:06;;;;;;;53.07;21.90;;;;;;;;;;4992010;28;20469;-72
2022/12/04 13:48:38;;;;;;;55.00;21.83;;;;;;;;;;5004393;28;20438;-72
2022/12/04 13:51:23;;;;;;;52.67;20.50;;;;;;;;;;5003573;28;20475;-72
2022/12/04 13:54:00;;;;;;;55.17;21.37;;;;;;;;;;5022638;28;20447;-72
2022/12/04 13:56:27;;;;;;;58.97;23.97;;;;;;;;;;5011970;28;21142;-72
2022/12/04 13:58:58;;;;;;;52.10;22.13;;;;;;;;;;4989624;28;20484;-72
2022/12/04 14:01:27;;;;;;;54.43;21.53;;;;;;;;;;5012198;28;20469;-72
2022/12/04 14:03:56;;;;;;;61.37;22.90;;;;;;;;;;5008755;28;20458;-72
2022/12/04 14:06:40;;;;;;;56.07;22.47;;;;;;;;;;5020734;28;20437;-72
2022/12/04 14:09:26;;;;;;;59.80;21.93;;;;;;;;;;4994646;28;20474;-72
2022/12/04 14:11:56;;;;;;;54.80;22.20;;;;;;;;;;4998901;28;20443;-72
2022/12/04 14:14:24;;;;;;;53.97;21.57;;;;;;;;;;4992679;28;20440;-70
2022/12/04 14:16:51;;;;;;;56.90;22.23;;;;;;;;;;5022599;28;20430;-70
2022/12/04 14:19:28;;;;;;;58.57;24.00;;;;;;;;;;5015203;28;20511;-70
2022/12/04 14:21:55;;;;;;;54.17;21.60;;;;;;;;;;5007078;28;20439;-72
2022/12/04 14:24:31;;;;;;;55.37;21.73;;;;;;;;;;5001753;28;20785;-71
2022/12/04 14:26:58;;;;;;;61.07;22.60;;;;;;;;;;5015018;28;20436;-71
2022/12/04 14:30:08;;;;;;;56.30;22.83;;;;;;;;;;4984068;28;20478;-71
2022/12/04 14:32:35;;;;;;;54.47;22.93;;;;;;;;;;4969041;28;20447;-71
2022/12/04 14:35:02;;;;;;;59.00;23.83;;;;;;;;;;4998057;28;20572;-71
2022/12/04 14:37:29;;;;;;;49.97;22.00;;;;;;;;;;4998036;28;20803;-71
2022/12/04 14:39:56;;;;;;;56.93;23.57;;;;;;;;;;5023571;28;20450;-71
2022/12/04 14:42:24;;;;;;;67.40;23.97;;;;;;;;;;5004833;28;20492;-74
2022/12/04 14:44:52;;;;;;;60.40;23.10;;;;;;;;;;4994077;28;20435;-73
2022/12/04 14:47:28;;;;;;;62.10;24.83;;;;;;;;;;5027136;28;20443;-73
2022/12/04 14:50:10;;;;;;;66.07;24.60;;;;;;;;;;4995089;28;20973;-73
2022/12/04 14:52:39;;;;;;;61.40;24.50;;;;;;;;;;5011223;28;20509;-73